< < Back
Terminal Aerodrome Forecast


Current Version              Previous Versions:   1  2  3  4  5  6  7  8  9  

Terminal Aerodrome Forecast

766
FTUS42 KTAE 011736
TAFABY
TAF
KABY 011736Z 0118/0218 11006KT P6SM BKN025
     FM012000 11006KT P6SM BKN040
      TEMPO 0120/0124 3SM TSRA BKN025CB
     FM020100 14003KT P6SM VCSH SCT050 BKN080
     FM020800 00000KT 5SM BR BKN004
     FM021500 05006KT P6SM VCSH BKN015=



Latest METAR

664
SAUS70 KWBC 020600
MTRABY
METAR KABY 020553Z AUTO 05004KT 10SM CLR 24/23 A2989 RMK AO2 SLP118
60073 T02390228 10306 20233 56017


USA.gov is the U.S. government's official web portal to all federal, state and local government web resources and services.